Time;durP1;ratioP1;P1;durP2;ratioP2;P2;SDS_P1;SDS_P2;PMS_P1;PMS_P2;Temp;Humidity;BMP_temperature;BMP_pressure;BME280_temperature;BME280_humidity;BME280_pressure;Samples;Min_cycle;Max_cycle;Signal;HPM_P1;HPM_P2
2022/02/25 00:01:46;;;;;;;14.43;2.15;;;;;;;4.43;71.22;101490.78;5037589;28;20037;-49
2022/02/25 00:04:11;;;;;;;14.95;1.83;;;;;;;4.41;71.70;101492.72;5032888;28;20033;-49
2022/02/25 00:06:36;;;;;;;16.70;2.40;;;;;;;4.39;71.54;101490.16;5040950;28;20029;-49
2022/02/25 00:09:02;;;;;;;16.58;1.77;;;;;;;4.39;71.80;101490.16;5047461;28;20029;-47
2022/02/25 00:11:27;;;;;;;16.13;2.30;;;;;;;4.37;72.24;101485.94;5036024;28;20101;-48
2022/02/25 00:13:52;;;;;;;19.98;2.38;;;;;;;4.37;72.28;101491.25;5049373;28;21391;-50
2022/02/25 00:16:18;;;;;;;17.05;2.05;;;;;;;4.36;72.47;101501.06;5041592;28;20026;-50
2022/02/25 00:18:43;;;;;;;13.02;1.70;;;;;;;4.38;72.50;101500.97;5045322;28;20056;-48
2022/02/25 00:21:08;;;;;;;19.08;2.80;;;;;;;4.42;72.24;101505.06;5047157;28;20053;-48
2022/02/25 00:23:34;;;;;;;17.05;2.50;;;;;;;4.48;71.01;101501.91;5050099;28;20025;-48
2022/02/25 00:25:59;;;;;;;20.25;2.40;;;;;;;4.52;71.43;101500.66;5035857;28;20036;-48
2022/02/25 00:28:24;;;;;;;18.45;2.33;;;;;;;4.51;71.14;101512.31;5049180;28;20025;-47
2022/02/25 00:30:50;;;;;;;22.33;1.80;;;;;;;4.48;71.52;101504.56;5033778;28;20782;-48
2022/02/25 00:33:16;;;;;;;28.52;2.50;;;;;;;4.48;70.56;101499.25;5035042;28;20033;-50
2022/02/25 00:35:42;;;;;;;20.25;2.70;;;;;;;4.48;70.18;101504.56;5045711;28;20071;-50
2022/02/25 00:38:08;;;;;;;9.55;1.40;;;;;;;4.46;70.91;101509.19;5051323;28;20029;-49
2022/02/25 00:40:33;;;;;;;13.82;1.95;;;;;;;4.45;70.59;101504.81;5044102;28;20037;-48
2022/02/25 00:42:58;;;;;;;32.25;2.95;;;;;;;4.42;70.98;101505.06;5038071;28;20046;-47
2022/02/25 00:45:24;;;;;;;14.77;2.13;;;;;;;4.43;71.61;101501.44;5049424;28;20037;-47
2022/02/25 00:47:49;;;;;;;17.38;2.00;;;;;;;4.44;71.44;101507.59;5038904;28;20025;-47
2022/02/25 00:50:15;;;;;;;13.55;2.13;;;;;;;4.42;71.61;101486.41;5049562;28;20444;-47
2022/02/25 00:52:41;;;;;;;25.92;3.90;;;;;;;4.45;71.60;101499.50;5041288;28;20493;-47
2022/02/25 00:55:07;;;;;;;22.98;2.45;;;;;;;4.42;72.27;101509.53;5035476;28;20385;-49
2022/02/25 00:57:32;;;;;;;19.50;2.78;;;;;;;4.40;72.08;101501.69;5035217;28;20473;-48
2022/02/25 00:59:58;;;;;;;19.23;2.00;;;;;;;4.34;72.47;101497.69;5038042;28;20033;-47
2022/02/25 01:02:23;;;;;;;30.17;2.85;;;;;;;4.36;72.22;101489.56;5048015;28;20025;-48
2022/02/25 01:04:48;;;;;;;21.73;2.38;;;;;;;4.40;71.77;101504.34;5044030;28;20025;-49
2022/02/25 01:07:14;;;;;;;26.55;3.33;;;;;;;4.39;71.89;101505.31;5042453;28;20056;-49
2022/02/25 01:09:39;;;;;;;18.52;2.17;;;;;;;4.42;71.70;101510.38;5043236;28;20020;-47
2022/02/25 01:12:06;;;;;;;28.92;2.65;;;;;;;4.41;71.83;101511.38;5049316;28;20024;-51
2022/02/25 01:14:31;;;;;;;17.23;2.40;;;;;;;4.43;71.65;101497.94;5037325;28;20112;-50
2022/02/25 01:16:56;;;;;;;31.60;3.13;;;;;;;4.44;71.87;101507.59;5046455;28;20129;-47
2022/02/25 01:19:22;;;;;;;14.35;2.20;;;;;;;4.47;71.65;101513.53;5047068;28;20170;-46
2022/02/25 01:21:47;;;;;;;17.40;2.08;;;;;;;4.47;71.55;101508.19;5041777;28;20510;-47
2022/02/25 01:24:13;;;;;;;26.00;3.25;;;;;;;4.49;71.61;101508.91;5051624;28;20388;-47
2022/02/25 01:26:38;;;;;;;22.00;2.40;;;;;;;4.51;71.61;101517.63;5054141;28;20448;-46
2022/02/25 01:29:03;;;;;;;21.08;2.20;;;;;;;4.53;71.22;101518.38;5051646;28;20337;-47
2022/02/25 01:31:29;;;;;;;21.35;2.75;;;;;;;4.55;70.47;101521.72;5035709;28;20063;-48
2022/02/25 01:33:54;;;;;;;15.38;2.17;;;;;;;4.54;71.33;101501.38;5052434;28;20033;-47
2022/02/25 01:36:19;;;;;;;24.52;2.78;;;;;;;4.56;70.31;101514.59;5054038;28;20425;-47
2022/02/25 01:38:45;;;;;;;19.33;2.10;;;;;;;4.56;70.35;101519.94;5043335;28;20112;-46
2022/02/25 01:41:10;;;;;;;20.95;2.38;;;;;;;4.60;70.45;101519.53;5053322;28;20040;-48
2022/02/25 01:43:36;;;;;;;14.30;2.22;;;;;;;4.49;71.00;101511.59;5037059;28;20113;-48
2022/02/25 01:46:02;;;;;;;26.35;2.30;;;;;;;4.52;70.94;101508.66;5052632;28;20039;-49
2022/02/25 01:48:27;;;;;;;24.90;2.10;;;;;;;4.51;71.36;101514.97;5049966;28;20040;-46
2022/02/25 01:50:52;;;;;;;23.20;3.20;;;;;;;4.48;72.04;101517.91;5051962;28;20060;-48
2022/02/25 01:53:20;;;;;;;22.48;3.05;;;;;;;4.47;71.83;101510.00;5041646;28;20044;-49
2022/02/25 01:55:47;;;;;;;19.70;2.67;;;;;;;4.48;71.85;101517.91;5041998;28;20128;-48
2022/02/25 01:58:13;;;;;;;20.05;2.67;;;;;;;4.55;71.82;101518.22;5041159;28;20330;-47
2022/02/25 02:00:39;;;;;;;22.65;2.83;;;;;;;4.54;72.61;101514.72;5038830;28;20033;-47
2022/02/25 02:03:05;;;;;;;22.33;2.75;;;;;;;4.52;72.59;101514.00;5048168;28;20037;-48
2022/02/25 02:05:32;;;;;;;28.13;3.85;;;;;;;4.52;73.31;101511.31;5045042;28;20094;-47
2022/02/25 02:07:57;;;;;;;27.02;3.45;;;;;;;4.52;72.68;101513.16;5050962;28;20084;-48
2022/02/25 02:10:23;;;;;;;32.53;3.13;;;;;;;4.52;72.74;101516.66;5033887;28;20100;-47
2022/02/25 02:12:49;;;;;;;23.60;2.45;;;;;;;4.53;72.55;101512.16;5038253;28;20033;-48
2022/02/25 02:15:14;;;;;;;24.42;3.40;;;;;;;4.50;72.65;101507.97;5051260;28;20177;-51
2022/02/25 02:17:39;;;;;;;23.17;2.92;;;;;;;4.48;73.29;101504.56;5051262;28;20060;-49
2022/02/25 02:20:05;;;;;;;15.85;2.05;;;;;;;4.46;73.65;101511.84;5044061;28;20100;-48
2022/02/25 02:22:32;;;;;;;24.30;2.85;;;;;;;4.45;73.88;101504.81;5041494;28;20068;-46
2022/02/25 02:24:57;;;;;;;22.63;2.50;;;;;;;4.44;73.82;101504.94;5044053;28;20025;-47
2022/02/25 02:27:23;;;;;;;29.00;3.75;;;;;;;4.46;73.69;101503.84;5054022;28;20369;-48
2022/02/25 02:29:48;;;;;;;24.73;3.45;;;;;;;4.48;74.19;101509.06;5051743;28;20040;-46
2022/02/25 02:32:13;;;;;;;28.83;3.15;;;;;;;4.51;73.64;101514.97;5045176;28;20108;-47
2022/02/25 02:34:39;;;;;;;17.70;2.20;;;;;;;4.54;73.76;101508.53;5055011;28;20071;-47
2022/02/25 02:37:07;;;;;;;24.73;2.88;;;;;;;4.49;74.00;101503.59;5036689;28;20124;-45
2022/02/25 02:39:33;;;;;;;26.75;2.75;;;;;;;4.50;73.20;101496.44;5038119;28;20029;-48
2022/02/25 02:41:59;;;;;;;26.88;3.42;;;;;;;4.49;73.28;101492.09;5033569;28;20030;-47
2022/02/25 02:44:24;;;;;;;20.52;2.88;;;;;;;4.46;72.97;101495.84;5044845;28;20028;-47
2022/02/25 02:46:49;;;;;;;21.48;2.45;;;;;;;4.47;73.18;101486.88;5042733;28;20033;-47
2022/02/25 02:49:15;;;;;;;17.98;2.38;;;;;;;4.44;73.05;101486.28;5044798;28;20029;-46
2022/02/25 02:51:40;;;;;;;18.90;2.53;;;;;;;4.45;73.14;101475.50;5052994;28;20040;-46
2022/02/25 02:54:05;;;;;;;24.75;3.35;;;;;;;4.47;72.83;101478.03;5052723;28;20087;-48
2022/02/25 02:56:31;;;;;;;25.33;2.65;;;;;;;4.48;72.83;101477.06;5052964;28;20036;-48
2022/02/25 02:58:56;;;;;;;31.00;3.05;;;;;;;4.49;72.81;101484.09;5052013;28;20047;-49
2022/02/25 03:01:26;;;;;;;23.80;3.20;;;;;;;4.51;73.41;101469.66;5042645;28;20049;-47
2022/02/25 03:03:52;;;;;;;20.88;2.40;;;;;;;4.50;73.54;101477.78;5034323;28;20026;-49
2022/02/25 03:06:17;;;;;;;27.38;3.17;;;;;;;4.50;73.22;101475.09;5048572;28;20401;-47
2022/02/25 03:08:43;;;;;;;23.70;3.40;;;;;;;4.45;73.73;101472.84;5037660;28;20036;-48
2022/02/25 03:11:08;;;;;;;36.63;3.40;;;;;;;4.44;73.89;101476.47;5032324;28;20068;-46
2022/02/25 03:13:33;;;;;;;24.45;2.95;;;;;;;4.43;73.56;101480.13;5033318;28;20056;-47
2022/02/25 03:15:59;;;;;;;21.77;3.63;;;;;;;4.46;73.28;101479.84;5050914;28;20033;-49
2022/02/25 03:18:24;;;;;;;34.30;3.47;;;;;;;4.46;73.01;101477.19;5047137;28;20025;-50
2022/02/25 03:20:49;;;;;;;37.33;3.53;;;;;;;4.45;73.49;101482.63;5041208;28;20048;-48
2022/02/25 03:23:15;;;;;;;23.95;3.17;;;;;;;4.46;73.00;101490.50;5034490;28;20025;-49
2022/02/25 03:25:40;;;;;;;31.23;3.58;;;;;;;4.41;73.69;101490.03;5035044;28;20040;-48
2022/02/25 03:28:06;;;;;;;30.00;2.78;;;;;;;4.43;73.08;101493.44;5032115;28;20448;-47
2022/02/25 03:30:31;;;;;;;23.70;3.80;;;;;;;4.46;73.39;101495.84;5039883;28;20033;-47
2022/02/25 03:32:57;;;;;;;28.98;3.10;;;;;;;4.53;73.50;101483.72;5045904;28;20025;-47
2022/02/25 03:35:22;;;;;;;35.60;3.88;;;;;;;4.64;73.55;101489.97;5033476;28;20029;-49
2022/02/25 03:37:48;;;;;;;46.58;3.80;;;;;;;4.71;73.95;101483.13;5032107;28;20029;-48
2022/02/25 03:40:14;;;;;;;30.33;3.30;;;;;;;4.73;74.45;101483.88;5044319;28;20385;-48
2022/02/25 03:42:39;;;;;;;30.52;3.03;;;;;;;4.75;74.45;101485.44;5050549;28;20163;-49
2022/02/25 03:45:06;;;;;;;28.63;3.55;;;;;;;4.82;75.23;101496.44;5034951;28;20177;-46
2022/02/25 03:47:32;;;;;;;21.50;2.63;;;;;;;4.85;75.32;101496.19;5051150;28;20479;-48
2022/02/25 03:49:59;;;;;;;24.95;2.70;;;;;;;4.87;75.39;101502.25;5041298;28;20088;-50
2022/02/25 03:52:24;;;;;;;28.48;3.25;;;;;;;4.90;75.59;101501.97;5031872;28;20025;-52
2022/02/25 03:54:50;;;;;;;28.30;2.58;;;;;;;4.92;75.15;101492.00;5033416;28;20412;-47
2022/02/25 03:57:15;;;;;;;29.13;3.75;;;;;;;4.97;74.67;101481.78;5048275;28;20033;-50
2022/02/25 03:59:40;;;;;;;26.05;3.60;;;;;;;4.96;74.86;101493.44;5033473;28;20021;-47
2022/02/25 04:02:06;;;;;;;25.65;3.10;;;;;;;4.99;74.45;101487.84;5050641;28;20043;-47
2022/02/25 04:04:31;;;;;;;24.58;3.15;;;;;;;4.98;74.88;101502.19;5040323;28;20037;-47
2022/02/25 04:06:56;;;;;;;28.20;3.28;;;;;;;5.02;74.95;101498.25;5036438;28;20440;-45
2022/02/25 04:09:22;;;;;;;26.30;3.28;;;;;;;5.03;75.09;101494.63;5046410;28;20208;-46
2022/02/25 04:11:52;;;;;;;30.42;3.60;;;;;;;5.07;74.45;101493.38;5051083;28;20479;-48
2022/02/25 04:14:21;;;;;;;23.13;3.03;;;;;;;5.05;74.29;101503.34;5043976;28;20025;-48
2022/02/25 04:16:48;;;;;;;32.80;3.45;;;;;;;5.08;74.68;101504.88;5039013;28;20037;-46
2022/02/25 04:19:14;;;;;;;30.67;3.22;;;;;;;5.10;74.33;101489.59;5039234;28;20462;-46
2022/02/25 04:21:39;;;;;;;30.85;3.15;;;;;;;5.09;74.58;101489.75;5054030;28;20117;-48
2022/02/25 04:24:04;;;;;;;35.92;3.47;;;;;;;5.09;74.70;101503.94;5045006;28;20065;-48
2022/02/25 04:26:30;;;;;;;28.23;3.17;;;;;;;5.13;74.97;101489.34;5042804;28;20041;-48
2022/02/25 04:28:55;;;;;;;25.98;3.40;;;;;;;5.13;74.92;101491.16;5041609;28;20034;-47
2022/02/25 04:31:20;;;;;;;27.98;4.13;;;;;;;5.12;75.04;101493.00;5039987;28;20136;-48
2022/02/25 04:33:46;;;;;;;31.20;3.10;;;;;;;5.13;75.36;101485.84;5050891;28;20455;-49
2022/02/25 04:36:11;;;;;;;23.48;2.72;;;;;;;5.14;76.35;101477.72;5041804;28;20469;-48
2022/02/25 04:38:37;;;;;;;34.40;3.35;;;;;;;5.13;76.85;101480.50;5040488;28;20029;-48
2022/02/25 04:41:03;;;;;;;39.58;3.80;;;;;;;5.13;77.83;101491.16;5044963;28;20449;-47
2022/02/25 04:43:29;;;;;;;34.75;3.50;;;;;;;5.10;78.19;101472.75;5043139;28;20033;-47
2022/02/25 04:45:55;;;;;;;39.10;4.40;;;;;;;5.10;78.56;101483.44;5035219;28;20502;-49
2022/02/25 04:48:21;;;;;;;33.88;3.60;;;;;;;5.07;78.62;101485.38;5044016;28;20033;-50
2022/02/25 04:50:47;;;;;;;30.55;3.35;;;;;;;5.07;78.68;101496.03;5043292;28;20029;-48
2022/02/25 04:53:12;;;;;;;25.10;2.95;;;;;;;5.06;79.16;101499.69;5037353;28;20535;-49
2022/02/25 04:55:37;;;;;;;28.20;3.55;;;;;;;5.04;80.35;101487.47;5039855;28;20053;-48
2022/02/25 04:58:03;;;;;;;29.73;3.90;;;;;;;4.98;80.06;101496.84;5042686;28;20078;-47
2022/02/25 05:00:28;;;;;;;21.08;3.22;;;;;;;4.95;79.46;101490.91;5043107;28;20500;-48
2022/02/25 05:02:54;;;;;;;23.05;2.67;;;;;;;4.96;79.15;101503.28;5041383;28;20025;-48
2022/02/25 05:05:19;;;;;;;31.98;3.83;;;;;;;4.98;78.44;101507.50;5051591;28;20056;-48
2022/02/25 05:07:44;;;;;;;30.20;3.13;;;;;;;5.01;78.04;101493.91;5038708;28;20137;-47
2022/02/25 05:10:10;;;;;;;26.80;2.72;;;;;;;5.02;77.99;101508.09;5050456;28;20057;-47
2022/02/25 05:12:35;;;;;;;22.90;2.90;;;;;;;5.02;77.05;101492.09;5049680;28;20032;-50
2022/02/25 05:20:28;;;;;;;25.98;3.50;;;;;;;5.11;76.93;101525.13;5037735;28;20052;-51
2022/02/25 05:22:57;;;;;;;17.85;2.65;;;;;;;5.15;77.26;101518.56;5034543;28;20369;-49
2022/02/25 05:25:23;;;;;;;28.10;3.45;;;;;;;5.14;77.71;101527.56;5038221;28;20030;-50
2022/02/25 05:27:52;;;;;;;20.15;3.28;;;;;;;5.11;77.23;101519.78;5046006;28;20034;-49
2022/02/25 05:30:19;;;;;;;25.80;2.90;;;;;;;5.08;77.58;101528.91;5044668;28;20127;-48
2022/02/25 05:32:45;;;;;;;27.83;3.22;;;;;;;5.08;76.73;101520.91;5049726;28;20029;-49
2022/02/25 05:35:11;;;;;;;21.35;2.92;;;;;;;5.09;76.51;101545.78;5052134;28;20025;-49
2022/02/25 05:37:41;;;;;;;23.10;2.85;;;;;;;5.10;75.80;101539.47;5041065;28;20029;-50
2022/02/25 05:40:07;;;;;;;29.70;2.95;;;;;;;5.14;76.03;101539.06;5036431;28;20037;-47
2022/02/25 05:42:33;;;;;;;24.52;2.83;;;;;;;5.14;75.80;101538.25;5046137;28;20031;-49
2022/02/25 05:45:00;;;;;;;25.95;3.60;;;;;;;5.14;76.30;101554.25;5044231;28;20028;-48
2022/02/25 05:47:26;;;;;;;31.80;3.40;;;;;;;5.17;75.90;101549.50;5037636;28;20084;-49
2022/02/25 05:49:51;;;;;;;25.00;3.70;;;;;;;5.17;76.16;101559.31;5042187;28;20126;-47
2022/02/25 05:52:16;;;;;;;25.52;4.32;;;;;;;5.20;76.01;101559.06;5035254;28;20104;-50
2022/02/25 05:54:42;;;;;;;17.83;2.13;;;;;;;5.27;75.07;101565.59;5043674;28;20564;-47
2022/02/25 05:57:07;;;;;;;17.73;2.72;;;;;;;5.23;75.98;101572.13;5041620;28;20022;-46
2022/02/25 05:59:33;;;;;;;17.35;2.60;;;;;;;5.24;75.87;101576.53;5037550;28;20037;-49
2022/02/25 06:01:58;;;;;;;21.80;3.35;;;;;;;5.21;76.77;101576.75;5042522;28;20112;-48
2022/02/25 06:04:23;;;;;;;14.70;2.20;;;;;;;5.20;77.00;101586.59;5042153;28;20163;-46
2022/02/25 06:06:49;;;;;;;27.08;3.20;;;;;;;5.17;76.66;101592.19;5044103;28;20047;-47
2022/02/25 06:09:14;;;;;;;20.08;2.75;;;;;;;5.20;76.27;101585.75;5044577;28;20032;-47
2022/02/25 06:11:40;;;;;;;21.50;2.30;;;;;;;5.21;76.04;101603.44;5035044;28;20131;-47
2022/02/25 06:14:05;;;;;;;33.67;2.78;;;;;;;5.21;76.64;101614.13;5048973;28;20025;-47
2022/02/25 06:16:30;;;;;;;19.08;2.42;;;;;;;5.21;76.19;101612.31;5051682;28;20452;-48
2022/02/25 06:18:55;;;;;;;18.10;2.53;;;;;;;5.26;75.60;101622.59;5043419;28;20025;-47
2022/02/25 06:21:21;;;;;;;21.63;3.08;;;;;;;5.32;75.24;101627.44;5053529;28;20025;-47
2022/02/25 06:23:46;;;;;;;19.13;2.97;;;;;;;5.34;75.47;101612.09;5048209;28;20139;-46
2022/02/25 06:26:11;;;;;;;22.88;2.70;;;;;;;5.39;74.96;101627.75;5047462;28;20036;-47
2022/02/25 06:28:37;;;;;;;17.60;2.58;;;;;;;5.36;75.23;101628.84;5049493;28;20542;-48
2022/02/25 06:31:02;;;;;;;22.63;2.50;;;;;;;5.34;75.59;101636.13;5040519;28;20029;-46
2022/02/25 06:33:27;;;;;;;21.95;3.22;;;;;;;5.34;76.74;101646.81;5036697;28;20089;-47
2022/02/25 06:35:53;;;;;;;21.92;3.30;;;;;;;5.35;76.74;101637.84;5051521;28;20067;-46
2022/02/25 06:38:18;;;;;;;32.30;3.22;;;;;;;5.38;76.50;101648.25;5036745;28;20112;-46
2022/02/25 06:40:44;;;;;;;23.77;2.83;;;;;;;5.41;76.61;101664.00;5040641;28;20057;-47
2022/02/25 06:43:09;;;;;;;30.88;3.67;;;;;;;5.40;77.01;101665.00;5045001;28;20464;-46
2022/02/25 06:45:34;;;;;;;17.45;2.92;;;;;;;5.40;76.16;101659.66;5048443;28;20051;-46
2022/02/25 06:48:00;;;;;;;30.40;3.38;;;;;;;5.41;76.51;101661.34;5047217;28;20033;-46
2022/02/25 06:50:25;;;;;;;33.20;2.80;;;;;;;5.45;76.37;101676.16;5032351;28;20029;-47
2022/02/25 06:52:51;;;;;;;24.40;2.92;;;;;;;5.40;77.06;101675.69;5041383;28;20029;-48
2022/02/25 06:55:17;;;;;;;23.85;3.53;;;;;;;5.39;77.41;101673.13;5051998;28;20511;-49
2022/02/25 06:57:43;;;;;;;29.15;3.65;;;;;;;5.36;77.54;101684.06;5044827;28;20091;-50
2022/02/25 07:00:11;;;;;;;39.67;6.38;;;;;;;5.36;77.21;101671.56;5032476;28;20108;-48
2022/02/25 07:02:36;;;;;;;31.50;3.20;;;;;;;5.34;77.57;101700.19;5044819;28;20119;-47
2022/02/25 07:05:02;;;;;;;40.38;3.95;;;;;;;5.37;77.75;101691.97;5038202;28;20562;-47
2022/02/25 07:07:27;;;;;;;36.00;4.22;;;;;;;5.40;77.28;101707.72;5042389;28;20111;-49
2022/02/25 07:09:53;;;;;;;21.40;3.30;;;;;;;5.40;77.37;101698.88;5051423;28;20074;-47
2022/02/25 07:12:19;;;;;;;21.38;3.10;;;;;;;5.43;77.43;101704.78;5047138;28;20033;-49
2022/02/25 07:14:44;;;;;;;28.10;3.78;;;;;;;5.49;77.35;101709.59;5045959;28;20022;-47
2022/02/25 07:17:09;;;;;;;33.25;4.18;;;;;;;5.54;77.44;101709.22;5032425;28;20037;-47
2022/02/25 07:19:35;;;;;;;26.92;3.40;;;;;;;5.61;77.22;101722.91;5033397;28;20025;-48
2022/02/25 07:22:00;;;;;;;28.65;2.58;;;;;;;5.60;77.02;101729.22;5042498;28;20028;-48
2022/02/25 07:24:25;;;;;;;29.17;3.50;;;;;;;5.63;77.45;101736.97;5039839;28;20032;-48
2022/02/25 07:26:51;;;;;;;17.42;3.30;;;;;;;5.67;77.04;101738.44;5043578;28;20039;-50
2022/02/25 07:29:16;;;;;;;30.08;3.20;;;;;;;5.72;76.60;101738.91;5035951;28;20060;-48
2022/02/25 07:31:41;;;;;;;25.52;3.63;;;;;;;5.76;76.58;101737.66;5040932;28;20547;-45
2022/02/25 07:34:07;;;;;;;32.92;3.17;;;;;;;5.73;76.24;101748.59;5052152;28;20453;-45
2022/02/25 07:36:33;;;;;;;41.22;3.47;;;;;;;5.80;75.10;101754.28;5040849;28;20029;-47
2022/02/25 07:38:59;;;;;;;32.92;3.25;;;;;;;5.84;75.19;101756.56;5045221;28;20082;-49
2022/02/25 07:41:24;;;;;;;30.10;3.55;;;;;;;5.92;74.82;101759.44;5049468;28;20029;-47
2022/02/25 07:43:49;;;;;;;26.08;3.03;;;;;;;5.98;75.05;101767.94;5032846;28;20367;-45
2022/02/25 07:46:15;;;;;;;33.05;3.60;;;;;;;6.03;74.86;101771.94;5044010;28;20041;-47
2022/02/25 07:48:40;;;;;;;25.67;3.42;;;;;;;6.06;74.59;101760.97;5049854;28;20021;-47
2022/02/25 07:51:06;;;;;;;23.42;3.15;;;;;;;6.04;74.01;101760.25;5038937;28;20039;-46
2022/02/25 07:53:33;;;;;;;24.30;2.75;;;;;;;6.13;73.13;101775.53;5042035;28;20060;-46
2022/02/25 07:55:58;;;;;;;24.27;2.78;;;;;;;6.15;72.98;101783.41;5048928;28;20049;-47
2022/02/25 07:58:24;;;;;;;18.83;2.67;;;;;;;6.10;73.41;101788.28;5044737;28;20456;-47
2022/02/25 08:00:49;;;;;;;25.23;2.45;;;;;;;6.03;73.71;101792.44;5046416;28;20416;-48
2022/02/25 08:03:14;;;;;;;26.85;3.15;;;;;;;6.04;73.67;101807.53;5041514;28;20483;-45
2022/02/25 08:05:40;;;;;;;22.42;2.47;;;;;;;5.99;74.64;101807.91;5036392;28;20035;-47
2022/02/25 08:08:07;;;;;;;19.92;2.72;;;;;;;5.94;74.14;101813.63;5039315;28;20029;-47
2022/02/25 08:10:32;;;;;;;22.30;3.05;;;;;;;5.90;73.99;101808.66;5033672;28;20132;-46
2022/02/25 08:12:58;;;;;;;28.20;3.38;;;;;;;5.91;73.99;101816.53;5043112;28;20100;-49
2022/02/25 08:15:24;;;;;;;30.35;3.40;;;;;;;5.88;74.50;101827.47;5032178;28;20040;-46
2022/02/25 08:17:49;;;;;;;27.67;3.17;;;;;;;5.89;75.07;101845.19;5040478;28;20068;-46
2022/02/25 08:20:14;;;;;;;22.13;3.67;;;;;;;5.93;75.20;101841.31;5032610;28;20112;-47
2022/02/25 08:22:40;;;;;;;25.98;3.28;;;;;;;5.97;74.91;101836.56;5033961;28;20032;-47
2022/02/25 08:25:07;;;;;;;34.17;3.67;;;;;;;6.00;75.15;101851.50;5051609;28;20029;-49
2022/02/25 08:27:33;;;;;;;23.38;2.95;;;;;;;6.00;74.78;101856.84;5050426;28;20044;-48
2022/02/25 08:29:58;;;;;;;26.00;2.72;;;;;;;5.97;75.20;101860.63;5046185;28;20018;-46
2022/02/25 08:32:23;;;;;;;25.50;3.58;;;;;;;6.01;75.61;101861.22;5035204;28;20049;-48
2022/02/25 08:34:49;;;;;;;28.27;3.33;;;;;;;6.06;75.25;101861.69;5031167;28;20124;-46
2022/02/25 08:37:14;;;;;;;25.55;3.03;;;;;;;5.96;75.41;101866.09;5040112;28;20373;-48
2022/02/25 08:39:39;;;;;;;31.17;3.22;;;;;;;5.96;75.90;101871.44;5045836;28;20084;-48
2022/02/25 08:42:05;;;;;;;33.75;3.03;;;;;;;5.92;75.92;101877.00;5031998;28;20030;-46
2022/02/25 08:44:30;;;;;;;22.92;2.65;;;;;;;5.96;75.80;101892.81;5031223;28;20136;-47
2022/02/25 08:46:55;;;;;;;24.08;2.97;;;;;;;5.95;75.32;101883.97;5037612;28;20071;-46
2022/02/25 08:49:21;;;;;;;13.52;3.05;;;;;;;5.97;74.88;101887.34;5046500;28;20036;-47
2022/02/25 08:51:47;;;;;;;29.92;3.47;;;;;;;6.04;74.94;101898.38;5053269;28;20029;-47
2022/02/25 08:54:16;;;;;;;30.50;3.67;;;;;;;6.07;74.78;101893.63;5051318;28;20072;-50
2022/02/25 08:56:41;;;;;;;;;;;;;;;6.11;75.39;101896.91;5047850;28;20037;-51
2022/02/25 08:59:06;;;;;;;16.77;3.00;;;;;;;6.16;75.66;101897.34;5051129;28;19920;-48
2022/02/25 09:01:32;;;;;;;21.13;2.78;;;;;;;6.31;75.72;101903.25;5051037;28;20028;-50
2022/02/25 09:04:01;;;;;;;18.73;3.25;;;;;;;6.32;75.59;101910.31;5036811;28;20029;-48
2022/02/25 09:06:28;;;;;;;27.50;3.00;;;;;;;6.36;75.72;101923.28;5035653;28;20067;-48
2022/02/25 09:08:53;;;;;;;33.53;4.50;;;;;;;6.43;74.64;101915.59;5050010;28;20472;-49
2022/02/25 09:11:19;;;;;;;28.08;3.50;;;;;;;6.40;74.14;101926.56;5038935;28;20192;-48
2022/02/25 09:13:45;;;;;;;27.67;3.05;;;;;;;6.35;74.66;101926.94;5042626;28;20067;-48
2022/02/25 09:16:11;;;;;;;25.77;3.40;;;;;;;6.35;75.08;101942.13;5044362;28;20025;-48
2022/02/25 09:18:37;;;;;;;33.92;4.32;;;;;;;6.31;74.72;101938.84;5036206;28;20071;-49
2022/02/25 09:21:03;;;;;;;28.75;3.33;;;;;;;6.40;74.38;101933.72;5036074;28;20489;-48
2022/02/25 09:23:28;;;;;;;30.13;3.90;;;;;;;6.41;75.03;101941.63;5047448;28;20052;-49
2022/02/25 09:25:53;;;;;;;28.42;3.35;;;;;;;6.38;75.48;101942.72;5046999;28;20465;-49
2022/02/25 09:28:19;;;;;;;35.58;3.40;;;;;;;6.34;75.23;101941.25;5043016;28;20358;-46
2022/02/25 09:30:44;;;;;;;32.38;4.40;;;;;;;6.36;75.55;101949.16;5054340;28;20190;-48
2022/02/25 09:33:10;;;;;;;26.33;4.03;;;;;;;6.37;75.60;101957.09;5047700;28;20025;-47
2022/02/25 09:35:35;;;;;;;32.40;3.63;;;;;;;6.45;74.95;101964.47;5046216;28;20047;-46
2022/02/25 09:38:00;;;;;;;22.17;2.80;;;;;;;6.51;75.11;101973.81;5054011;28;20518;-49
2022/02/25 09:40:26;;;;;;;32.83;2.97;;;;;;;6.51;75.21;101973.81;5044908;28;20159;-45
2022/02/25 09:42:51;;;;;;;26.05;4.07;;;;;;;6.55;75.63;101976.06;5034019;28;20112;-47
2022/02/25 09:45:17;;;;;;;28.45;3.03;;;;;;;6.59;74.89;101963.31;5034053;28;20079;-46
2022/02/25 09:47:44;;;;;;;26.08;2.78;;;;;;;6.60;74.81;101978.38;5049872;28;20377;-48
2022/02/25 09:50:16;;;;;;;34.38;3.92;;;;;;;6.68;74.50;101985.75;5054006;28;20021;-49
2022/02/25 09:52:42;;;;;;;30.65;4.00;;;;;;;6.77;73.94;101991.19;5051765;28;20352;-48
2022/02/25 09:55:09;;;;;;;25.77;3.35;;;;;;;6.74;73.47;101999.47;5047407;28;20144;-47
2022/02/25 09:57:35;;;;;;;25.00;3.63;;;;;;;6.88;73.67;102003.66;5032304;28;20457;-48
2022/02/25 10:00:00;;;;;;;26.55;3.17;;;;;;;7.03;73.20;102004.22;5035297;28;20095;-47
2022/02/25 10:02:38;;;;;;;30.35;3.42;;;;;;;7.09;73.23;102011.72;5038189;28;20488;-46
2022/02/25 10:05:12;;;;;;;30.15;3.47;;;;;;;7.22;72.76;102017.72;5032962;28;20488;-48
2022/02/25 10:07:39;;;;;;;32.28;3.30;;;;;;;7.22;71.76;102012.34;5033932;28;20037;-50
2022/02/25 10:10:06;;;;;;;33.53;3.47;;;;;;;7.25;72.41;102027.31;5034417;28;20032;-48
2022/02/25 10:12:32;;;;;;;38.08;3.85;;;;;;;7.22;72.34;102036.44;5049688;28;20029;-48
2022/02/25 10:14:57;;;;;;;25.65;3.33;;;;;;;7.16;72.71;102028.94;5053977;28;20127;-47
2022/02/25 10:17:24;;;;;;;23.50;2.72;;;;;;;7.17;72.67;102036.00;5034533;28;20108;-48
2022/02/25 10:20:03;;;;;;;29.08;3.47;;;;;;;7.22;72.62;102039.13;5032921;28;20117;-47
2022/02/25 10:22:31;;;;;;;22.17;2.95;;;;;;;7.59;72.07;102046.69;5033617;28;20079;-50
2022/02/25 10:24:58;;;;;;;22.08;3.30;;;;;;;7.88;70.67;102049.50;5048578;28;20052;-46
2022/02/25 10:27:41;;;;;;;21.42;3.40;;;;;;;8.07;70.17;102051.41;5037342;28;20044;-47
2022/02/25 10:30:11;;;;;;;21.48;2.78;;;;;;;8.21;69.12;102058.22;5042376;28;20040;-46
2022/02/25 10:32:45;;;;;;;31.48;3.20;;;;;;;8.18;68.77;102063.00;5050664;28;20388;-51
2022/02/25 10:35:36;;;;;;;19.95;2.88;;;;;;;8.47;67.57;102074.69;5053057;28;20028;-47
2022/02/25 10:38:15;;;;;;;27.23;3.00;;;;;;;8.59;67.34;102082.66;5052934;28;20091;-48
2022/02/25 10:40:48;;;;;;;26.98;2.92;;;;;;;8.61;66.19;102077.97;5049148;28;20060;-49
2022/02/25 10:43:17;;;;;;;23.55;3.58;;;;;;;8.55;67.49;102080.22;5047223;28;20044;-48
2022/02/25 10:45:43;;;;;;;39.15;4.10;;;;;;;8.71;66.72;102081.50;5041686;28;20029;-50
2022/02/25 10:48:13;;;;;;;30.58;3.60;;;;;;;8.78;65.64;102093.41;5042746;28;20029;-48
2022/02/25 10:50:59;;;;;;;19.38;2.92;;;;;;;8.74;65.85;102103.56;5045459;28;20036;-46
2022/02/25 10:53:30;;;;;;;29.23;3.60;;;;;;;8.87;65.88;102114.03;5048011;28;20444;-47
2022/02/25 10:56:21;;;;;;;26.65;3.42;;;;;;;9.57;65.33;102116.56;5052902;28;20063;-48
2022/02/25 10:58:52;;;;;;;21.50;3.55;;;;;;;10.29;61.61;102129.41;5051113;28;20029;-50
2022/02/25 11:01:21;;;;;;;17.73;2.47;;;;;;;10.36;60.75;102132.34;5048659;28;20511;-48
2022/02/25 11:04:07;;;;;;;27.95;2.92;;;;;;;10.52;60.88;102134.38;5051730;28;20077;-49
2022/02/25 11:06:33;;;;;;;25.25;3.10;;;;;;;10.99;59.19;102126.16;5037159;28;20032;-49
2022/02/25 11:08:59;;;;;;;22.45;3.50;;;;;;;11.04;58.39;102114.91;5051946;28;20158;-47
2022/02/25 11:11:25;;;;;;;23.35;3.95;;;;;;;10.99;58.90;102147.69;5045295;28;20037;-48
2022/02/25 11:13:51;;;;;;;28.02;3.20;;;;;;;11.11;58.62;102141.09;5050580;28;20032;-49
2022/02/25 11:16:20;;;;;;;30.10;4.05;;;;;;;11.15;57.93;102153.25;5041092;28;20417;-49
2022/02/25 11:18:47;;;;;;;27.77;3.53;;;;;;;11.15;57.89;102149.69;5051940;28;20104;-49
2022/02/25 11:21:16;;;;;;;24.85;3.00;;;;;;;11.16;57.38;102164.84;5034357;28;20128;-47
2022/02/25 11:23:43;;;;;;;23.27;3.35;;;;;;;10.67;58.37;102165.19;5042550;28;20354;-49
2022/02/25 11:26:13;;;;;;;33.50;4.73;;;;;;;10.72;59.11;102173.66;5045669;28;20036;-47